createdAt,value
2019-03-28T00:02:55.499Z,81.65
2019-03-28T00:07:51.467Z,81.67
2019-03-28T00:12:48.363Z,79.51
2019-03-28T00:17:44.293Z,80.29
2019-03-28T00:22:45.165Z,80.92
2019-03-28T00:27:41.166Z,81.64
2019-03-28T00:32:37.225Z,81.93
2019-03-28T00:37:33.179Z,82.47
2019-03-28T00:42:29.095Z,82.75
2019-03-28T00:47:25.079Z,82.96
2019-03-28T00:52:21.033Z,83.18
2019-03-28T00:57:17.039Z,83.37
2019-03-28T01:02:12.981Z,83.53
2019-03-28T01:07:08.984Z,83.58
2019-03-28T01:12:04.975Z,83.61
2019-03-28T01:17:00.962Z,83.71
2019-03-28T01:21:56.985Z,83.76
2019-03-28T01:26:57.603Z,83.87
2019-03-28T01:31:51.011Z,83.95
2019-03-28T01:36:46.967Z,84.40
2019-03-28T01:41:42.924Z,83.47
2019-03-28T01:46:38.837Z,82.60
2019-03-28T01:51:34.893Z,83.88
2019-03-28T01:56:30.899Z,83.54
2019-03-28T02:01:26.831Z,83.81
2019-03-28T02:06:22.874Z,83.37
2019-03-28T02:11:18.929Z,83.82
2019-03-28T02:16:14.972Z,85.03
2019-03-28T02:21:10.960Z,85.99
2019-03-28T02:26:07.005Z,86.79
2019-03-28T02:31:03.041Z,87.08
2019-03-28T02:35:59.061Z,87.07
2019-03-28T02:40:55.118Z,86.82
2019-03-28T02:45:52.462Z,85.65
2019-03-28T02:50:48.429Z,86.29
2019-03-28T02:55:44.549Z,86.91
2019-03-28T03:00:41.626Z,86.78
2019-03-28T03:05:38.334Z,86.54
2019-03-28T03:10:34.814Z,86.20
2019-03-28T03:15:31.334Z,86.77
2019-03-28T03:20:27.327Z,87.29
2019-03-28T03:25:23.465Z,87.49
2019-03-28T03:30:19.528Z,87.41
2019-03-28T03:35:16.538Z,86.02
2019-03-28T03:40:14.464Z,86.84
2019-03-28T03:45:10.451Z,87.41
2019-03-28T03:50:06.737Z,86.59
2019-03-28T03:55:05.122Z,84.24
2019-03-28T04:00:01.017Z,83.93
2019-03-28T04:04:57.058Z,84.36
2019-03-28T04:09:53.044Z,84.07
2019-03-28T04:14:48.952Z,85.53
2019-03-28T04:19:44.883Z,85.59
2019-03-28T04:24:41.480Z,86.74
2019-03-28T04:29:37.378Z,84.78
2019-03-28T04:34:33.310Z,84.81
2019-03-28T04:39:29.327Z,85.92
2019-03-28T04:44:25.243Z,84.14
2019-03-28T04:49:21.159Z,85.16
2019-03-28T04:54:19.582Z,83.80
2019-03-28T04:59:15.641Z,83.93
2019-03-28T05:04:11.549Z,84.01
2019-03-28T05:09:07.459Z,84.02
2019-03-28T05:14:03.372Z,85.18
2019-03-28T05:18:59.993Z,86.20
2019-03-28T05:23:56.797Z,85.24
2019-03-28T05:28:58.016Z,85.67
2019-03-28T05:33:57.086Z,84.61
2019-03-28T05:38:54.315Z,85.86
2019-03-28T05:43:51.601Z,86.83
2019-03-28T05:48:50.819Z,87.85
2019-03-28T05:53:48.834Z,87.93
2019-03-28T05:58:45.520Z,88.02
2019-03-28T06:03:42.470Z,87.70
2019-03-28T06:08:39.872Z,87.93
2019-03-28T06:13:36.965Z,88.08
2019-03-28T06:18:35.032Z,87.97
2019-03-28T06:23:32.325Z,88.06
2019-03-28T06:28:29.122Z,86.95
2019-03-28T06:33:25.732Z,83.62
2019-03-28T06:38:27.470Z,83.26
2019-03-28T06:43:24.290Z,83.04
2019-03-28T06:48:22.136Z,84.30
2019-03-28T06:53:19.057Z,84.17
2019-03-28T06:58:17.068Z,84.82
2019-03-28T07:03:15.128Z,84.79
2019-03-28T07:08:12.847Z,85.32
2019-03-28T07:13:10.335Z,85.20
2019-03-28T07:18:07.067Z,84.52
2019-03-28T07:23:03.463Z,84.51
2019-03-28T07:28:00.133Z,84.19
2019-03-28T07:32:56.672Z,84.00
2019-03-28T07:37:53.088Z,83.23
2019-03-28T07:42:50.558Z,82.84
2019-03-28T07:47:47.126Z,82.04
2019-03-28T07:52:48.302Z,80.92
2019-03-28T07:57:44.951Z,81.26
2019-03-28T08:02:41.803Z,79.71
2019-03-28T08:07:45.067Z,78.22
2019-03-28T08:12:37.059Z,75.47
2019-03-28T08:17:34.309Z,75.15
2019-03-28T08:22:32.942Z,77.27
2019-03-28T08:27:31.310Z,78.24
2019-03-28T08:32:28.499Z,77.43
2019-03-28T08:37:25.544Z,77.52
2019-03-28T08:42:22.370Z,75.85
2019-03-28T08:47:21.098Z,76.97
2019-03-28T08:52:17.564Z,74.78
2019-03-28T08:57:14.661Z,71.83
2019-03-28T09:02:11.276Z,76.03
2019-03-28T09:07:07.853Z,73.31
2019-03-28T09:12:04.481Z,71.25
2019-03-28T09:17:01.061Z,70.60
2019-03-28T09:21:59.607Z,70.12
2019-03-28T09:26:59.675Z,69.91
2019-03-28T09:31:57.540Z,68.21
2019-03-28T09:36:54.380Z,69.06
2019-03-28T09:41:54.407Z,69.83
2019-03-28T09:46:51.097Z,68.24
2019-03-28T09:51:47.865Z,70.54
2019-03-28T09:56:47.303Z,69.03
2019-03-28T10:01:43.962Z,67.74
2019-03-28T10:06:40.632Z,66.79
2019-03-28T10:11:37.225Z,66.54
2019-03-28T10:16:35.652Z,66.27
2019-03-28T10:21:32.597Z,65.73
2019-03-28T10:26:30.615Z,65.79
2019-03-28T10:31:27.598Z,65.72
2019-03-28T10:36:27.592Z,67.12
2019-03-28T10:41:25.693Z,65.12
2019-03-28T10:46:21.351Z,66.51
2019-03-28T10:51:18.144Z,64.24
2019-03-28T10:56:21.900Z,65.20
2019-03-28T11:01:16.507Z,62.35
2019-03-28T11:06:12.199Z,61.39
2019-03-28T11:11:08.968Z,58.97
2019-03-28T11:16:05.881Z,60.19
2019-03-28T11:21:03.247Z,60.13
2019-03-28T11:26:00.078Z,61.95
2019-03-28T11:30:56.548Z,62.86
2019-03-28T11:35:53.019Z,62.30
2019-03-28T11:40:49.916Z,62.63
2019-03-28T11:45:46.618Z,63.54
2019-03-28T11:50:42.627Z,62.70
2019-03-28T11:55:38.604Z,62.70
2019-03-28T12:00:34.613Z,60.78
2019-03-28T12:05:30.570Z,62.14
2019-03-28T12:10:26.458Z,60.33
2019-03-28T12:15:22.375Z,61.37
2019-03-28T12:20:18.288Z,62.40
2019-03-28T12:25:14.202Z,63.66
2019-03-28T12:30:11.832Z,61.63
2019-03-28T12:35:08.845Z,61.42
2019-03-28T12:40:05.859Z,62.22
2019-03-28T12:45:03.775Z,60.41
2019-03-28T12:49:59.699Z,61.22
2019-03-28T12:54:56.342Z,61.02
2019-03-28T12:59:53.689Z,61.74
2019-03-28T13:04:49.872Z,61.55
2019-03-28T13:09:45.788Z,61.20
2019-03-28T13:14:41.708Z,60.90
2019-03-28T13:19:37.620Z,60.82
2019-03-28T13:24:34.248Z,61.13
2019-03-28T13:29:30.355Z,60.25
2019-03-28T13:34:26.938Z,59.52
2019-03-28T13:39:23.086Z,58.97
2019-03-28T13:44:19.015Z,59.65
2019-03-28T13:49:15.015Z,61.58
2019-03-28T13:54:17.662Z,60.59
2019-03-28T13:59:13.691Z,59.82
2019-03-28T14:04:09.601Z,61.92
2019-03-28T14:09:06.114Z,61.47
2019-03-28T14:14:02.039Z,61.97
2019-03-28T14:18:57.921Z,60.59
2019-03-28T14:23:53.913Z,61.78
2019-03-28T14:28:50.423Z,60.47
2019-03-28T14:33:46.575Z,61.55
2019-03-28T14:38:42.485Z,61.05
2019-03-28T14:43:38.414Z,61.16
2019-03-28T14:48:34.495Z,60.48
2019-03-28T14:53:30.446Z,59.41
2019-03-28T14:58:26.784Z,58.13
2019-03-28T15:03:27.239Z,58.79
2019-03-28T15:08:22.131Z,59.27
2019-03-28T15:13:18.068Z,60.45
2019-03-28T15:18:17.804Z,59.61
2019-03-28T15:23:16.264Z,59.92
2019-03-28T15:28:15.301Z,58.56
2019-03-28T15:33:12.005Z,58.99
2019-03-28T15:38:11.652Z,59.10
2019-03-28T15:43:07.710Z,59.53
2019-03-28T15:48:03.736Z,60.69
2019-03-28T15:52:59.705Z,59.18
2019-03-28T15:57:55.673Z,59.52
2019-03-28T16:02:51.590Z,58.58
2019-03-28T16:07:47.830Z,58.24
2019-03-28T16:12:44.473Z,58.56
2019-03-28T16:17:40.484Z,58.84
2019-03-28T16:22:37.708Z,57.97
2019-03-28T16:27:33.884Z,57.42
2019-03-28T16:32:29.795Z,58.18
2019-03-28T16:37:25.726Z,57.80
2019-03-28T16:42:21.636Z,58.50
2019-03-28T16:47:17.548Z,59.73
2019-03-28T16:52:13.490Z,58.54
2019-03-28T16:57:09.427Z,57.63
2019-03-28T17:02:05.339Z,58.03
2019-03-28T17:07:01.263Z,57.74
2019-03-28T17:11:57.173Z,57.80
2019-03-28T17:16:53.097Z,58.80
2019-03-28T17:21:49.053Z,58.43
2019-03-28T17:26:45.035Z,59.13
2019-03-28T17:31:40.948Z,58.59
2019-03-28T17:36:37.026Z,59.58
2019-03-28T17:41:35.672Z,59.53
2019-03-28T17:46:32.563Z,58.99
2019-03-28T17:51:28.539Z,59.66
2019-03-28T17:56:24.461Z,60.73
2019-03-28T18:01:20.483Z,59.94
2019-03-28T18:06:16.410Z,62.23
2019-03-28T18:11:12.302Z,63.67
2019-03-28T18:16:09.820Z,64.38
2019-03-28T18:21:05.731Z,64.43
2019-03-28T18:26:02.124Z,61.38
2019-03-28T18:30:58.031Z,60.28
2019-03-28T18:35:53.949Z,60.62
2019-03-28T18:40:49.880Z,62.77
2019-03-28T18:45:45.792Z,64.33
2019-03-28T18:50:41.811Z,65.87
2019-03-28T18:55:38.498Z,66.74
2019-03-28T19:00:34.490Z,67.16
2019-03-28T19:05:30.426Z,67.42
2019-03-28T19:10:26.333Z,67.98
2019-03-28T19:15:22.304Z,68.47
2019-03-28T19:20:18.367Z,68.86
2019-03-28T19:25:16.316Z,69.04
2019-03-28T19:30:12.874Z,69.47
2019-03-28T19:35:09.153Z,67.74
2019-03-28T19:40:08.429Z,67.13
2019-03-28T19:45:04.944Z,69.00
2019-03-28T19:50:00.962Z,70.39
2019-03-28T19:55:03.077Z,70.76
2019-03-28T19:59:59.207Z,70.99
2019-03-28T20:04:55.312Z,71.66
2019-03-28T20:09:51.230Z,71.83
2019-03-28T20:14:48.418Z,72.12
2019-03-28T20:19:44.381Z,72.39
2019-03-28T20:24:45.063Z,73.47
2019-03-28T20:29:42.406Z,74.25
2019-03-28T20:34:38.431Z,74.57
2019-03-28T20:39:34.379Z,74.69
2019-03-28T20:44:30.290Z,73.63
2019-03-28T20:49:26.306Z,72.67
2019-03-28T20:54:25.036Z,73.13
2019-03-28T20:59:21.198Z,72.80
2019-03-28T21:04:30.275Z,72.94
2019-03-28T21:09:14.927Z,74.07
2019-03-28T21:14:10.847Z,74.13
2019-03-28T21:19:06.757Z,74.48
2019-03-28T21:24:10.506Z,74.43
2019-03-28T21:29:06.453Z,73.47
2019-03-28T21:34:02.467Z,73.32
2019-03-28T21:38:58.382Z,74.36
2019-03-28T21:43:54.290Z,74.73
2019-03-28T21:48:50.216Z,74.12
2019-03-28T21:53:46.967Z,75.17
2019-03-28T21:58:43.002Z,74.58
2019-03-28T22:03:39.995Z,75.45
2019-03-28T22:08:36.048Z,76.10
2019-03-28T22:13:31.959Z,76.85
2019-03-28T22:18:27.884Z,75.33
2019-03-28T22:23:23.956Z,75.97
2019-03-28T22:28:19.859Z,76.35
2019-03-28T22:33:15.907Z,76.35
2019-03-28T22:38:12.032Z,76.75
2019-03-28T22:43:07.950Z,75.76
2019-03-28T22:48:10.740Z,75.09
2019-03-28T22:53:01.818Z,75.02
2019-03-28T22:57:57.761Z,76.38
2019-03-28T23:02:54.848Z,77.01
2019-03-28T23:07:51.000Z,77.43
2019-03-28T23:12:46.987Z,76.41
2019-03-28T23:17:42.903Z,77.40
2019-03-28T23:22:38.819Z,77.58
2019-03-28T23:27:34.729Z,76.41
2019-03-28T23:32:30.725Z,73.16
2019-03-28T23:37:26.912Z,75.58
2019-03-28T23:42:23.085Z,76.03
2019-03-28T23:47:18.996Z,74.34
2019-03-28T23:52:14.981Z,75.81
2019-03-28T23:57:10.923Z,77.29
